Time;durP1;ratioP1;P1;durP2;ratioP2;P2;SDS_P1;SDS_P2;PMS_P1;PMS_P2;Temp;Humidity;BMP_temperature;BMP_pressure;BME280_temperature;BME280_humidity;BME280_pressure;Samples;Min_cycle;Max_cycle;Signal;HPM_P1;HPM_P2
2021/12/26 00:00:43;;;;;;;;;;;;;;;4.39;58.67;98081.06;4490229;31;20160;-88
2021/12/26 00:03:09;;;;;;;11.40;4.00;;;;;;;4.31;58.73;98087.44;4486123;32;19998;-80
2021/12/26 00:05:34;;;;;;;13.05;4.30;;;;;;;4.23;58.95;98084.28;4487285;31;20107;-80
2021/12/26 00:08:00;;;;;;;10.82;3.67;;;;;;;4.24;58.83;98079.91;4486373;32;20092;-80
2021/12/26 00:10:26;;;;;;;10.90;3.70;;;;;;;4.04;59.13;98078.94;4487055;31;20092;-81
2021/12/26 00:12:52;;;;;;;11.88;4.53;;;;;;;4.17;59.13;98075.84;4487553;31;20154;-81
2021/12/26 00:15:18;;;;;;;10.73;3.80;;;;;;;4.14;59.17;98064.63;4487385;31;20088;-81
2021/12/26 00:17:44;;;;;;;10.65;4.25;;;;;;;4.05;59.76;98069.38;4487366;31;20084;-80
2021/12/26 00:20:11;;;;;;;11.95;4.00;;;;;;;4.09;59.99;98078.75;4473167;32;20146;-78
2021/12/26 00:22:37;;;;;;;11.23;4.05;;;;;;;3.90;59.70;98076.91;4487399;31;20096;-82
2021/12/26 00:25:04;;;;;;;12.82;3.70;;;;;;;4.06;59.82;98076.28;4487088;31;20404;-84
2021/12/26 00:27:29;;;;;;;12.02;3.90;;;;;;;4.10;60.19;98076.09;4487174;31;20100;-84
2021/12/26 00:29:55;;;;;;;10.25;4.07;;;;;;;4.15;59.98;98078.50;4486989;31;20096;-82
2021/12/26 00:32:20;;;;;;;10.93;3.83;;;;;;;4.18;60.05;98080.16;4472989;32;20432;-79
2021/12/26 00:34:50;;;;;;;11.32;3.37;;;;;;;4.18;59.40;98078.41;4487242;31;20096;-80
2021/12/26 00:37:15;;;;;;;13.27;4.03;;;;;;;4.13;59.72;98081.19;4487386;31;20141;-80
2021/12/26 00:39:41;;;;;;;9.50;3.20;;;;;;;4.15;59.49;98081.09;4487350;31;20152;-80
2021/12/26 00:42:06;;;;;;;12.10;3.83;;;;;;;4.10;59.67;98073.50;4485805;32;20096;-80
2021/12/26 00:44:38;;;;;;;9.73;3.78;;;;;;;4.22;59.60;98084.34;4487271;31;20092;-80
2021/12/26 00:47:04;;;;;;;12.77;3.55;;;;;;;4.22;59.45;98077.34;4487198;31;20073;-80
2021/12/26 00:49:30;;;;;;;10.30;4.10;;;;;;;4.14;58.94;98084.66;4487125;31;20149;-80
2021/12/26 00:51:56;;;;;;;13.13;4.20;;;;;;;4.21;59.24;98085.22;4485901;32;20422;-80
2021/12/26 00:54:21;;;;;;;10.52;3.67;;;;;;;4.31;58.81;98076.16;4487236;31;20084;-80
2021/12/26 00:56:47;;;;;;;12.00;3.72;;;;;;;4.36;58.83;98081.16;4485882;32;20495;-81
2021/12/26 00:59:12;;;;;;;12.07;3.92;;;;;;;4.37;58.62;98081.13;4485944;32;20105;-80
2021/12/26 01:01:37;;;;;;;11.12;3.83;;;;;;;4.39;58.37;98081.06;4486959;31;20097;-80
2021/12/26 01:04:04;;;;;;;13.48;4.40;;;;;;;4.40;58.31;98085.34;4486941;31;20102;-80
2021/12/26 01:06:29;;;;;;;10.68;4.20;;;;;;;4.43;58.35;98091.28;4485475;32;20096;-80
2021/12/26 01:08:55;;;;;;;10.32;4.10;;;;;;;4.44;58.27;98085.19;4487022;31;20122;-80
2021/12/26 01:11:39;;;;;;;11.73;4.03;;;;;;;4.49;58.41;98087.59;4485628;32;20121;-80
2021/12/26 01:14:09;;;;;;;10.95;4.00;;;;;;;4.48;58.01;98088.47;4485841;32;20616;-80
2021/12/26 01:16:35;;;;;;;11.07;3.62;;;;;;;4.32;58.29;98096.09;4486789;31;20117;-80
2021/12/26 01:19:08;;;;;;;11.90;4.10;;;;;;;4.36;58.34;98089.00;4486746;31;20118;-80
2021/12/26 01:21:34;;;;;;;12.10;4.22;;;;;;;4.45;57.44;98097.28;4486759;31;20092;-80
2021/12/26 01:24:02;;;;;;;12.25;4.32;;;;;;;4.43;58.51;98099.12;4485560;32;20514;-80
2021/12/26 01:26:30;;;;;;;10.68;4.00;;;;;;;4.10;58.76;98096.94;4485476;32;20084;-80
2021/12/26 01:28:56;;;;;;;12.48;4.53;;;;;;;4.29;58.71;98098.84;4485460;32;20104;-80
2021/12/26 01:31:22;;;;;;;10.57;4.22;;;;;;;4.29;58.41;98104.88;4485422;32;20100;-80
2021/12/26 01:33:56;;;;;;;13.70;4.60;;;;;;;4.38;58.09;98102.81;4485384;32;20147;-80
2021/12/26 01:36:27;;;;;;;11.15;4.55;;;;;;;4.42;58.43;98109.59;4485492;32;20092;-80
2021/12/26 01:38:54;;;;;;;12.52;4.60;;;;;;;4.49;57.55;98111.06;4486312;32;20096;-80
2021/12/26 01:41:19;;;;;;;11.05;4.55;;;;;;;4.45;57.59;98105.09;4484846;32;20092;-80
2021/12/26 01:43:47;;;;;;;11.70;4.55;;;;;;;4.45;57.58;98106.88;4486193;31;20110;-80
2021/12/26 01:46:14;;;;;;;10.82;4.10;;;;;;;4.51;57.38;98115.28;4486145;31;20120;-80
2021/12/26 01:48:39;;;;;;;12.40;4.93;;;;;;;4.23;57.48;98112.09;4486168;31;20119;-80
2021/12/26 01:51:05;;;;;;;12.40;4.60;;;;;;;4.31;57.17;98102.22;4486102;31;20089;-80
2021/12/26 01:53:37;;;;;;;10.38;4.40;;;;;;;4.23;56.78;98112.09;4484853;32;20100;-81
2021/12/26 01:56:07;;;;;;;12.18;4.53;;;;;;;3.81;58.16;98108.50;4484962;32;20106;-81
2021/12/26 01:58:35;;;;;;;12.30;3.97;;;;;;;4.04;57.70;98104.16;4485057;32;20120;-81
2021/12/26 02:01:02;;;;;;;;;;;;;;;4.03;57.09;98107.66;4485089;32;20175;-81
2021/12/26 02:03:27;;;;;;;12.48;4.40;;;;;;;4.08;57.39;98108.34;4485751;32;19987;-80
2021/12/26 02:05:53;;;;;;;12.23;4.82;;;;;;;3.96;57.80;98104.47;4488063;31;20103;-80
2021/12/26 02:08:19;;;;;;;11.60;4.22;;;;;;;3.88;58.36;98103.91;4488089;31;20115;-80
2021/12/26 02:10:45;;;;;;;11.30;4.28;;;;;;;3.86;58.54;98100.50;4486902;32;20148;-80
2021/12/26 02:13:10;;;;;;;12.00;5.40;;;;;;;3.90;58.02;98094.25;4486921;32;20080;-81
2021/12/26 02:15:36;;;;;;;12.15;4.28;;;;;;;4.03;58.22;98092.03;4486760;32;20103;-81
2021/12/26 02:18:02;;;;;;;11.60;4.07;;;;;;;3.97;58.69;98100.94;4486691;32;20448;-80
2021/12/26 02:20:53;;;;;;;10.93;3.80;;;;;;;4.03;57.66;98098.09;4486750;32;20535;-81
2021/12/26 02:24:12;;;;;;;10.43;3.35;;;;;;;3.92;57.60;98095.91;4487077;32;20136;-81
2021/12/26 02:28:37;;;;;;;10.55;3.22;;;;;;;3.85;56.92;98101.44;4486824;32;20092;-81
2021/12/26 02:31:02;;;;;;;9.25;3.05;;;;;;;3.56;57.53;98102.53;4487780;31;20084;-81
2021/12/26 02:33:28;;;;;;;10.07;2.85;;;;;;;3.38;57.15;98107.50;4486704;32;20219;-80
2021/12/26 02:35:53;;;;;;;9.98;2.85;;;;;;;3.60;56.79;98102.34;4473451;32;20115;-81
2021/12/26 02:38:19;;;;;;;8.05;2.55;;;;;;;3.41;55.83;98103.94;4487842;31;20096;-80
2021/12/26 02:40:47;;;;;;;9.02;2.95;;;;;;;3.21;56.46;98109.88;4487610;31;20201;-80
2021/12/26 02:43:15;;;;;;;10.00;2.75;;;;;;;3.41;56.15;98109.97;4486760;32;20088;-81
2021/12/26 02:45:41;;;;;;;8.27;2.33;;;;;;;3.58;55.80;98101.56;4486650;32;20100;-80
2021/12/26 02:48:08;;;;;;;9.55;2.90;;;;;;;3.45;55.67;98114.16;4487789;31;20119;-80
2021/12/26 02:50:33;;;;;;;7.57;2.53;;;;;;;3.57;54.89;98112.03;4486621;32;20126;-80
2021/12/26 02:53:01;;;;;;;8.55;3.00;;;;;;;3.66;55.66;98099.50;4487626;31;20076;-80
2021/12/26 02:55:27;;;;;;;8.13;2.72;;;;;;;3.49;55.87;98114.91;4486515;32;20081;-80
2021/12/26 02:57:55;;;;;;;10.52;2.95;;;;;;;3.49;56.26;98117.50;4487790;31;20156;-80
2021/12/26 03:00:24;;;;;;;9.15;2.90;;;;;;;3.55;55.81;98114.69;4486377;32;20140;-80
2021/12/26 03:02:53;;;;;;;9.00;3.08;;;;;;;3.33;56.61;98119.84;4486599;32;20115;-80
2021/12/26 03:05:19;;;;;;;10.35;2.80;;;;;;;3.47;56.67;98112.34;4486451;32;20145;-80
2021/12/26 03:07:46;;;;;;;9.30;2.70;;;;;;;3.52;56.73;98115.66;4487601;31;20088;-80
2021/12/26 03:10:20;;;;;;;9.02;2.60;;;;;;;3.39;56.99;98119.59;4487693;31;20455;-80
2021/12/26 03:12:47;;;;;;;8.18;2.92;;;;;;;3.23;57.83;98116.72;4487656;31;20243;-81
2021/12/26 03:15:12;;;;;;;9.18;2.72;;;;;;;3.08;58.46;98117.25;4486604;31;20107;-81
2021/12/26 03:17:39;;;;;;;11.05;3.35;;;;;;;3.32;58.04;98124.19;4487522;31;20088;-80
2021/12/26 03:20:12;;;;;;;9.23;2.92;;;;;;;3.41;58.75;98116.97;4486280;32;20172;-81
2021/12/26 03:22:38;;;;;;;9.65;2.97;;;;;;;3.27;57.96;98115.69;4486522;32;20477;-81
2021/12/26 03:25:05;;;;;;;8.95;2.60;;;;;;;3.09;58.29;98122.41;4487438;31;20107;-81
2021/12/26 03:27:30;;;;;;;8.45;2.58;;;;;;;2.99;58.75;98125.37;4487489;31;20092;-81
2021/12/26 03:29:56;;;;;;;8.95;2.67;;;;;;;3.17;58.59;98116.94;4486268;32;20505;-81
2021/12/26 03:32:22;;;;;;;7.35;2.05;;;;;;;3.19;58.20;98101.25;4487496;31;20099;-81
2021/12/26 03:34:49;;;;;;;7.43;2.00;;;;;;;3.20;58.08;98106.41;4487505;31;20085;-81
2021/12/26 03:37:15;;;;;;;8.57;2.20;;;;;;;3.10;57.26;98105.03;4486218;32;20155;-81
2021/12/26 03:39:40;;;;;;;7.82;2.33;;;;;;;3.41;55.86;98109.16;4487549;31;20114;-80
2021/12/26 03:42:06;;;;;;;6.50;1.98;;;;;;;3.29;55.91;98106.06;4485924;32;20416;-80
2021/12/26 03:44:32;;;;;;;9.35;2.72;;;;;;;3.04;55.24;98111.31;4487827;31;20084;-80
2021/12/26 03:46:57;;;;;;;8.07;2.20;;;;;;;3.12;56.39;98113.63;4486471;32;20092;-80
2021/12/26 03:49:23;;;;;;;8.93;2.72;;;;;;;3.04;55.10;98110.47;4486427;32;20101;-80
2021/12/26 03:51:48;;;;;;;7.70;2.28;;;;;;;3.18;55.10;98105.59;4486531;32;20141;-80
2021/12/26 03:54:14;;;;;;;7.30;1.85;;;;;;;3.41;54.22;98101.34;4487618;31;20102;-80
2021/12/26 03:56:39;;;;;;;7.68;2.08;;;;;;;3.47;53.47;98106.31;4486425;32;20132;-79
2021/12/26 03:59:05;;;;;;;10.18;2.28;;;;;;;3.18;54.32;98104.75;4487670;31;20108;-80
2021/12/26 04:01:31;;;;;;;5.95;1.70;;;;;;;3.43;54.40;98113.38;4486356;32;20084;-80
2021/12/26 04:03:56;;;;;;;6.43;1.95;;;;;;;3.35;53.63;98107.59;4487519;31;20137;-80
2021/12/26 04:06:22;;;;;;;7.25;2.10;;;;;;;3.22;54.69;98106.34;4487453;31;20368;-80
2021/12/26 04:08:47;;;;;;;7.32;1.80;;;;;;;3.37;53.05;98104.97;4486143;32;20096;-80
2021/12/26 04:11:13;;;;;;;7.15;1.90;;;;;;;2.69;54.54;98104.72;4486117;32;20111;-80
2021/12/26 04:13:39;;;;;;;7.37;1.80;;;;;;;2.78;52.99;98108.75;4487167;31;20409;-80
2021/12/26 04:16:05;;;;;;;5.65;1.65;;;;;;;3.02;52.74;98107.06;4485945;32;20104;-79
2021/12/26 04:18:30;;;;;;;6.70;1.70;;;;;;;2.82;52.03;98102.53;4487237;31;20132;-80
2021/12/26 04:20:55;;;;;;;7.75;1.95;;;;;;;3.09;52.29;98106.78;4485866;32;20069;-79
2021/12/26 04:23:21;;;;;;;7.12;1.67;;;;;;;3.24;52.05;98099.34;4485945;32;20356;-79
2021/12/26 04:25:47;;;;;;;6.90;1.80;;;;;;;3.15;52.84;98105.72;4486766;31;20172;-80
2021/12/26 04:28:17;;;;;;;6.25;1.35;;;;;;;3.22;51.95;98112.41;4487101;31;20111;-80
2021/12/26 04:30:43;;;;;;;5.97;1.77;;;;;;;2.92;50.53;98114.34;4487116;31;20111;-80
2021/12/26 04:33:09;;;;;;;6.78;1.40;;;;;;;2.36;50.88;98117.94;4487094;31;20081;-79
2021/12/26 04:35:34;;;;;;;5.68;1.45;;;;;;;2.67;50.05;98119.53;4487023;31;20096;-80
2021/12/26 04:38:00;;;;;;;5.95;1.30;;;;;;;2.63;50.52;98126.56;4487088;31;20088;-80
2021/12/26 04:40:25;;;;;;;5.32;1.33;;;;;;;2.31;49.44;98125.84;4485636;32;20341;-80
2021/12/26 04:42:51;;;;;;;4.82;1.37;;;;;;;2.72;49.33;98130.59;4485744;32;20073;-80
2021/12/26 04:45:17;;;;;;;6.32;1.40;;;;;;;3.00;49.13;98134.91;4486959;31;20088;-80
2021/12/26 04:47:43;;;;;;;6.65;1.30;;;;;;;2.55;48.84;98133.78;4485844;32;20173;-80
2021/12/26 04:50:12;;;;;;;4.95;1.40;;;;;;;2.46;48.49;98136.69;4485857;32;20100;-79
2021/12/26 04:52:40;;;;;;;6.20;1.50;;;;;;;2.69;47.77;98141.13;4486810;31;20096;-80
2021/12/26 04:55:07;;;;;;;3.45;1.20;;;;;;;2.87;47.96;98137.91;4485760;32;20717;-80
2021/12/26 04:57:32;;;;;;;4.65;1.25;;;;;;;2.94;48.05;98142.00;4485527;32;20092;-79
2021/12/26 04:59:58;;;;;;;6.00;1.10;;;;;;;2.90;47.51;98145.59;4486972;31;20110;-79
2021/12/26 05:02:24;;;;;;;5.05;1.15;;;;;;;2.75;47.49;98146.12;4487112;31;20080;-79
2021/12/26 05:04:51;;;;;;;4.65;1.20;;;;;;;3.01;45.72;98149.59;4485737;32;20123;-80
2021/12/26 05:07:16;;;;;;;3.90;1.17;;;;;;;3.04;46.07;98145.12;4487047;31;20465;-80
2021/12/26 05:09:42;;;;;;;3.17;1.20;;;;;;;3.27;45.87;98144.34;4486836;31;20088;-79
2021/12/26 05:12:08;;;;;;;4.32;1.00;;;;;;;3.34;45.98;98151.03;4486787;31;20340;-80
2021/12/26 05:14:33;;;;;;;5.03;1.23;;;;;;;2.85;43.24;98152.72;4486798;31;20117;-79
2021/12/26 05:16:58;;;;;;;5.57;1.40;;;;;;;3.14;44.03;98149.09;4485591;32;20093;-79
2021/12/26 05:19:24;;;;;;;5.87;1.30;;;;;;;3.17;44.35;98153.38;4486816;31;20425;-79
2021/12/26 05:21:49;;;;;;;3.37;1.00;;;;;;;2.92;43.94;98151.59;4486653;31;20142;-79
2021/12/26 05:24:15;;;;;;;4.97;1.20;;;;;;;3.10;44.28;98155.31;4486593;31;20104;-79
2021/12/26 05:26:40;;;;;;;3.80;1.10;;;;;;;3.10;43.93;98151.88;4485538;32;20113;-79
2021/12/26 05:29:05;;;;;;;3.37;0.95;;;;;;;3.11;43.51;98157.03;4486379;31;20076;-79
2021/12/26 05:31:31;;;;;;;4.43;1.20;;;;;;;3.00;44.30;98164.34;4486308;31;20456;-80
2021/12/26 05:33:56;;;;;;;2.83;0.95;;;;;;;3.22;43.10;98161.84;4485099;32;20100;-80
2021/12/26 05:36:22;;;;;;;4.50;1.05;;;;;;;3.23;42.01;98155.75;4486263;31;20431;-80
2021/12/26 05:38:47;;;;;;;3.05;0.98;;;;;;;3.36;42.64;98163.97;4487390;31;20329;-80
2021/12/26 05:41:12;;;;;;;3.80;1.05;;;;;;;3.15;42.84;98178.59;4486918;32;20136;-80
2021/12/26 05:43:38;;;;;;;4.03;1.02;;;;;;;3.13;43.71;98178.66;4488179;31;20107;-80
2021/12/26 05:46:03;;;;;;;3.75;1.35;;;;;;;3.16;42.42;98175.09;4488202;31;20093;-80
2021/12/26 05:48:29;;;;;;;3.03;0.93;;;;;;;3.09;42.99;98170.97;4486981;32;20077;-80
2021/12/26 05:50:54;;;;;;;4.80;1.00;;;;;;;3.26;43.07;98167.81;4474093;32;20085;-80
2021/12/26 05:53:20;;;;;;;4.12;1.08;;;;;;;3.34;42.25;98169.25;4488111;31;20113;-80
2021/12/26 05:55:45;;;;;;;5.40;1.10;;;;;;;3.08;40.78;98172.75;4473886;32;20115;-80
2021/12/26 05:58:11;;;;;;;4.62;1.12;;;;;;;3.22;40.10;98172.25;4486989;32;20130;-79
2021/12/26 06:00:36;;;;;;;4.62;1.05;;;;;;;3.08;41.35;98175.34;4486593;32;20100;-79
2021/12/26 06:03:02;;;;;;;4.10;0.85;;;;;;;2.87;41.54;98187.31;4488068;31;20092;-80
2021/12/26 06:05:27;;;;;;;2.85;0.90;;;;;;;3.14;42.17;98187.31;4488074;31;20141;-80
2021/12/26 06:07:53;;;;;;;3.25;1.00;;;;;;;2.89;40.45;98195.91;4487806;31;20085;-80
2021/12/26 06:10:18;;;;;;;4.30;1.10;;;;;;;3.09;41.43;98192.69;4488014;31;20079;-79
2021/12/26 06:12:44;;;;;;;3.78;1.00;;;;;;;2.97;41.04;98198.28;4486654;32;20100;-80
2021/12/26 06:15:10;;;;;;;5.75;1.10;;;;;;;3.04;41.33;98199.78;4473705;32;20144;-80
2021/12/26 06:17:35;;;;;;;2.67;1.10;;;;;;;2.80;40.16;98205.78;4487097;32;20110;-80
2021/12/26 06:20:05;;;;;;;3.45;1.08;;;;;;;3.01;39.72;98207.66;4487817;31;20369;-80
2021/12/26 06:22:31;;;;;;;2.87;0.80;;;;;;;3.25;40.81;98207.78;4486688;32;20459;-80
2021/12/26 06:24:56;;;;;;;2.55;0.73;;;;;;;3.46;41.76;98204.41;4486736;32;20122;-80
2021/12/26 06:27:22;;;;;;;2.10;0.82;;;;;;;3.51;41.35;98206.84;4487950;31;20463;-80
2021/12/26 06:29:47;;;;;;;3.47;1.10;;;;;;;3.65;41.13;98207.22;4486628;32;20111;-80
2021/12/26 06:32:13;;;;;;;2.80;1.00;;;;;;;3.64;39.11;98207.28;4487859;31;20153;-80
2021/12/26 06:34:39;;;;;;;2.62;1.00;;;;;;;3.39;39.89;98218.53;4487990;31;20110;-80
2021/12/26 06:37:05;;;;;;;3.10;0.90;;;;;;;3.70;39.45;98223.50;4486785;32;20168;-80
2021/12/26 06:39:30;;;;;;;4.18;0.90;;;;;;;3.66;39.76;98216.72;4487741;31;20073;-80
2021/12/26 06:41:56;;;;;;;4.97;1.30;;;;;;;3.51;38.21;98217.25;4487480;31;20092;-80
2021/12/26 06:44:21;;;;;;;5.07;1.20;;;;;;;3.50;36.90;98224.22;4486722;32;20115;-80
2021/12/26 06:46:47;;;;;;;4.37;1.30;;;;;;;3.31;37.42;98224.00;4487783;31;20093;-80
2021/12/26 06:49:15;;;;;;;4.25;0.80;;;;;;;3.61;37.47;98223.00;4486427;32;20097;-80
2021/12/26 06:51:41;;;;;;;3.95;1.17;;;;;;;3.63;38.00;98221.19;4487862;31;20430;-79
2021/12/26 06:54:06;;;;;;;4.00;0.93;;;;;;;3.62;37.65;98232.53;4486523;32;20122;-79
2021/12/26 06:56:32;;;;;;;3.83;0.98;;;;;;;3.74;36.89;98232.06;4486465;32;20119;-80
2021/12/26 06:58:57;;;;;;;4.10;0.93;;;;;;;3.82;37.21;98229.19;4487707;31;20088;-80
2021/12/26 07:01:23;;;;;;;4.35;0.90;;;;;;;3.74;37.07;98232.91;4486040;32;20100;-85
2021/12/26 07:03:48;;;;;;;4.18;1.05;;;;;;;3.66;36.84;98232.34;4486088;32;20096;-79
2021/12/26 07:06:13;;;;;;;4.30;1.17;;;;;;;3.85;37.05;98239.50;4487268;31;20227;-79
2021/12/26 07:08:39;;;;;;;3.95;1.20;;;;;;;3.61;38.07;98242.09;4486357;32;20434;-79
2021/12/26 07:11:05;;;;;;;4.50;1.10;;;;;;;3.72;36.99;98239.09;4486363;32;20420;-80
2021/12/26 07:13:30;;;;;;;4.15;1.10;;;;;;;3.90;37.52;98237.56;4487563;31;20131;-79
2021/12/26 07:15:55;;;;;;;4.37;1.10;;;;;;;3.85;37.93;98248.19;4487574;31;20390;-82
2021/12/26 07:18:21;;;;;;;4.18;1.20;;;;;;;3.94;37.49;98244.41;4487344;31;20128;-80
2021/12/26 07:20:46;;;;;;;4.82;1.37;;;;;;;3.99;38.38;98246.81;4487397;31;20107;-79
2021/12/26 07:23:12;;;;;;;3.55;1.05;;;;;;;3.60;37.27;98236.94;4487371;31;20089;-79
2021/12/26 07:25:37;;;;;;;4.15;1.12;;;;;;;3.82;37.04;98247.44;4487332;31;20173;-80
2021/12/26 07:28:05;;;;;;;4.50;1.05;;;;;;;3.87;37.39;98250.72;4486117;32;20084;-80
2021/12/26 07:30:31;;;;;;;4.20;1.20;;;;;;;3.61;37.53;98255.13;4487337;31;20088;-80
2021/12/26 07:32:56;;;;;;;3.62;0.98;;;;;;;4.02;37.62;98244.09;4486322;32;20417;-80
2021/12/26 07:35:23;;;;;;;5.00;1.30;;;;;;;4.11;36.92;98247.25;4487466;31;20093;-79
2021/12/26 07:37:48;;;;;;;3.97;1.17;;;;;;;4.19;37.58;98246.94;4489885;31;20092;-77
2021/12/26 07:40:14;;;;;;;6.93;1.58;;;;;;;3.93;36.71;98245.28;4494257;31;20396;-78
2021/12/26 07:42:41;;;;;;;4.87;1.20;;;;;;;4.13;36.11;98253.25;4480679;31;20411;-80
2021/12/26 07:45:06;;;;;;;3.20;1.17;;;;;;;4.09;36.10;98246.41;4492737;31;20084;-78
2021/12/26 07:47:32;;;;;;;4.85;1.20;;;;;;;4.18;36.63;98245.25;4492545;31;20394;-79
2021/12/26 07:49:57;;;;;;;3.87;1.12;;;;;;;4.34;36.13;98248.94;4477256;31;20283;-79
2021/12/26 07:52:28;;;;;;;5.90;1.10;;;;;;;4.33;35.78;98257.69;4488700;31;20092;-79
2021/12/26 07:54:54;;;;;;;5.28;1.20;;;;;;;4.40;34.62;98253.09;4491676;31;20144;-78
2021/12/26 07:57:19;;;;;;;2.00;1.02;;;;;;;4.59;34.95;98255.00;4493236;31;20370;-80
2021/12/26 07:59:45;;;;;;;4.85;1.10;;;;;;;4.52;35.37;98263.06;4495030;31;20126;-80
2021/12/26 08:02:16;;;;;;;4.45;1.00;;;;;;;4.60;35.57;98265.38;4494088;31;20100;-80
2021/12/26 08:04:43;;;;;;;4.47;1.08;;;;;;;4.50;35.22;98272.72;4487463;31;20504;-81
2021/12/26 08:07:09;;;;;;;5.40;1.23;;;;;;;4.65;34.39;98268.63;4487402;31;20387;-82
2021/12/26 08:09:34;;;;;;;4.28;1.05;;;;;;;4.49;34.92;98275.38;4486141;31;20154;-80
2021/12/26 08:12:00;;;;;;;6.45;1.33;;;;;;;4.65;35.23;98271.25;4485326;31;20311;-81
2021/12/26 08:14:25;;;;;;;3.10;0.95;;;;;;;4.73;34.28;98273.56;4501733;31;20076;-81
2021/12/26 08:16:51;;;;;;;3.45;1.10;;;;;;;4.49;34.84;98271.00;4501663;31;20096;-81
2021/12/26 08:19:16;;;;;;;5.22;1.20;;;;;;;4.66;35.75;98262.53;4502816;31;20114;-81
2021/12/26 08:21:41;;;;;;;4.78;1.10;;;;;;;4.85;35.88;98251.38;4502891;31;20321;-82
2021/12/26 08:24:07;;;;;;;4.95;1.00;;;;;;;4.96;34.50;98258.75;4488817;31;20136;-82
2021/12/26 08:26:33;;;;;;;4.57;1.20;;;;;;;4.98;34.16;98262.16;4503072;31;20098;-82
2021/12/26 08:28:59;;;;;;;4.95;1.12;;;;;;;4.37;35.01;98265.41;4503150;31;20099;-82
2021/12/26 08:31:24;;;;;;;3.87;1.10;;;;;;;4.78;34.35;98270.78;4503186;31;20415;-82
2021/12/26 08:33:49;;;;;;;3.92;1.12;;;;;;;4.83;32.77;98268.81;4503098;31;20135;-82
2021/12/26 08:36:18;;;;;;;7.25;1.95;;;;;;;4.82;32.60;98267.16;4503166;31;20305;-82
2021/12/26 08:38:44;;;;;;;4.75;1.25;;;;;;;4.90;32.46;98270.28;4502597;31;20721;-82
2021/12/26 08:41:09;;;;;;;4.00;1.20;;;;;;;4.94;32.44;98264.03;4502569;31;20131;-82
2021/12/26 08:43:35;;;;;;;6.68;1.10;;;;;;;4.84;32.43;98268.78;4488557;31;20106;-81
2021/12/26 08:46:00;;;;;;;7.00;1.80;;;;;;;5.05;32.93;98280.13;4488338;31;20084;-82
2021/12/26 08:48:26;;;;;;;6.43;1.55;;;;;;;5.04;31.93;98277.56;4488440;31;20436;-82
2021/12/26 08:50:55;;;;;;;5.62;1.40;;;;;;;5.06;32.66;98280.97;4502583;31;20097;-82
2021/12/26 08:53:27;;;;;;;5.65;1.40;;;;;;;5.25;32.44;98278.44;4502750;31;20103;-82
2021/12/26 08:55:54;;;;;;;7.03;1.58;;;;;;;5.27;32.24;98280.09;4502511;31;20092;-82
2021/12/26 08:58:20;;;;;;;4.57;1.30;;;;;;;5.08;32.65;98285.22;4502544;31;20092;-82
2021/12/26 09:00:45;;;;;;;5.85;1.45;;;;;;;4.82;32.25;98288.88;4488217;31;20099;-82
2021/12/26 09:03:11;;;;;;;6.10;1.50;;;;;;;4.99;32.46;98288.19;4502472;31;20083;-82
2021/12/26 09:05:36;;;;;;;6.75;1.65;;;;;;;4.48;32.93;98284.09;4488090;31;20106;-82
2021/12/26 09:08:02;;;;;;;4.18;1.37;;;;;;;3.89;33.55;98282.78;4502584;31;20139;-82
2021/12/26 09:10:28;;;;;;;4.80;1.50;;;;;;;4.50;33.00;98277.94;4502792;31;20159;-81
2021/12/26 09:12:54;;;;;;;7.15;1.50;;;;;;;4.80;33.02;98269.81;4501493;31;20345;-81
2021/12/26 09:15:20;;;;;;;4.22;1.30;;;;;;;4.91;32.38;98275.47;4502586;31;20402;-81
2021/12/26 09:17:45;;;;;;;6.70;1.55;;;;;;;4.86;33.29;98264.34;4488167;31;20168;-81
2021/12/26 09:20:11;;;;;;;6.70;1.80;;;;;;;4.75;32.17;98260.47;4502573;31;20087;-81
2021/12/26 09:22:39;;;;;;;6.05;1.40;;;;;;;4.75;31.85;98258.69;4502490;31;20392;-81
2021/12/26 09:25:04;;;;;;;4.15;1.30;;;;;;;4.53;32.74;98261.31;4488126;31;20098;-81
2021/12/26 09:27:30;;;;;;;5.28;1.50;;;;;;;4.67;32.96;98252.94;4502311;31;20414;-81
2021/12/26 09:29:55;;;;;;;5.90;1.60;;;;;;;4.77;32.53;98250.81;4502229;31;20088;-81
2021/12/26 09:32:21;;;;;;;6.00;1.60;;;;;;;4.85;32.85;98260.06;4502273;31;20083;-81
2021/12/26 09:34:46;;;;;;;4.82;1.40;;;;;;;4.72;33.10;98249.25;4502058;31;20419;-81
2021/12/26 09:37:12;;;;;;;6.65;1.90;;;;;;;4.85;32.90;98248.78;4502132;31;20106;-82
2021/12/26 09:39:38;;;;;;;7.85;1.67;;;;;;;4.95;33.20;98244.88;4502103;31;20140;-81
2021/12/26 09:42:04;;;;;;;5.10;1.48;;;;;;;5.16;32.43;98242.28;4487499;31;20088;-81
2021/12/26 09:44:30;;;;;;;4.12;1.50;;;;;;;5.20;32.34;98243.88;4502085;31;20371;-82
2021/12/26 09:46:55;;;;;;;5.82;1.48;;;;;;;5.33;31.86;98242.41;4487556;31;20100;-81
2021/12/26 09:49:21;;;;;;;5.32;1.40;;;;;;;4.98;31.14;98249.09;4501989;31;20080;-82
2021/12/26 09:51:47;;;;;;;7.82;2.05;;;;;;;5.25;31.34;98252.34;4501874;31;20110;-82
2021/12/26 09:54:13;;;;;;;6.40;1.75;;;;;;;5.24;29.77;98242.81;4487735;31;20092;-82
2021/12/26 09:56:39;;;;;;;7.50;1.90;;;;;;;4.82;30.25;98244.50;4502087;31;20385;-82
2021/12/26 09:59:07;;;;;;;6.47;1.65;;;;;;;5.24;30.55;98241.06;4487796;31;20122;-82
2021/12/26 10:01:41;;;;;;;7.57;1.83;;;;;;;5.23;30.51;98241.94;4501787;31;20179;-82
2021/12/26 10:04:21;;;;;;;6.82;1.80;;;;;;;5.13;30.07;98233.66;4487296;31;20532;-82
2021/12/26 10:06:49;;;;;;;8.10;2.12;;;;;;;5.32;30.45;98238.13;4487408;31;20113;-82
2021/12/26 10:09:15;;;;;;;6.50;1.70;;;;;;;5.44;31.01;98234.13;4501874;31;20602;-83
2021/12/26 10:11:43;;;;;;;7.07;1.80;;;;;;;5.42;29.83;98234.19;4487513;31;20080;-82
2021/12/26 10:14:10;;;;;;;;;;;;;;;5.37;29.58;98235.31;4502204;31;20091;-82
2021/12/26 10:16:38;;;;;;;8.48;2.05;;;;;;;5.47;29.33;98234.84;4501944;31;20010;-82
2021/12/26 10:19:03;;;;;;;;;;;;;;;5.57;29.88;98230.09;4501889;31;20128;-82
2021/12/26 10:21:31;;;;;;;6.97;1.67;;;;;;;5.67;29.13;98220.91;4501492;31;19975;-82
2021/12/26 10:23:58;;;;;;;;;;;;;;;5.75;28.93;98228.44;4502275;31;20145;-82
2021/12/26 10:26:27;;;;;;;5.95;1.30;;;;;;;5.38;29.20;98230.03;4489509;31;19999;-82
2021/12/26 10:29:16;;;;;;;6.72;1.52;;;;;;;5.48;28.63;98225.25;4503827;31;20488;-82
2021/12/26 10:31:52;;;;;;;6.25;1.50;;;;;;;5.25;28.29;98232.31;4503868;31;20091;-82
2021/12/26 10:34:21;;;;;;;6.10;1.15;;;;;;;5.44;28.03;98223.69;4503848;31;20087;-82
2021/12/26 10:36:48;;;;;;;5.72;2.05;;;;;;;5.27;27.99;98227.00;4489340;31;20387;-82
2021/12/26 10:39:17;;;;;;;8.15;1.70;;;;;;;5.42;27.44;98213.31;4503648;31;20123;-82
2021/12/26 10:41:48;;;;;;;8.40;2.05;;;;;;;5.53;28.63;98212.84;4503436;31;20155;-82
2021/12/26 10:44:25;;;;;;;6.68;1.62;;;;;;;5.64;29.00;98215.84;4503692;31;20106;-82
2021/12/26 10:46:57;;;;;;;8.20;1.52;;;;;;;5.75;28.50;98215.34;4503651;31;20458;-85
2021/12/26 10:49:27;;;;;;;9.95;2.20;;;;;;;5.68;28.93;98208.72;4498158;31;20079;-84
2021/12/26 10:51:53;;;;;;;6.55;1.70;;;;;;;5.42;29.30;98215.06;4487457;31;20092;-84
2021/12/26 10:54:20;;;;;;;8.50;2.00;;;;;;;5.70;28.73;98214.72;4473291;32;20421;-85
2021/12/26 10:57:04;;;;;;;;;;;;;;;5.76;29.12;98214.47;4473745;32;20100;-84
2021/12/26 10:59:30;;;;;;;7.03;1.67;;;;;;;5.56;29.43;98217.91;4487517;32;20471;-81
2021/12/26 11:01:56;;;;;;;5.72;1.60;;;;;;;5.56;29.03;98214.47;4487438;32;20095;-83
2021/12/26 11:04:26;;;;;;;5.18;1.83;;;;;;;5.79;29.32;98224.75;4473246;32;20102;-83
2021/12/26 11:06:59;;;;;;;7.05;1.65;;;;;;;5.86;29.22;98214.91;4473270;32;20148;-84
2021/12/26 11:09:25;;;;;;;8.20;1.90;;;;;;;5.86;28.95;98209.66;4460139;32;20169;-84
2021/12/26 11:12:16;;;;;;;6.75;2.50;;;;;;;5.85;29.11;98208.81;4487055;32;20100;-84
2021/12/26 11:14:59;;;;;;;8.25;2.00;;;;;;;5.71;29.17;98216.41;4483387;32;20152;-84
2021/12/26 11:17:32;;;;;;;5.85;1.80;;;;;;;5.72;29.58;98208.50;4487966;32;20097;-85
2021/12/26 11:19:59;;;;;;;7.75;1.87;;;;;;;5.40;29.75;98206.44;4487661;32;20118;-84
2021/12/26 11:22:25;;;;;;;6.57;1.67;;;;;;;5.55;29.19;98212.78;4487793;32;20080;-84
2021/12/26 11:24:53;;;;;;;8.43;1.87;;;;;;;5.50;29.46;98211.22;4473387;32;20447;-84
2021/12/26 11:27:22;;;;;;;6.75;1.95;;;;;;;5.52;29.99;98211.13;4473844;32;20123;-84
2021/12/26 11:29:48;;;;;;;7.82;1.80;;;;;;;5.44;29.56;98211.47;4487805;32;20546;-84
2021/12/26 11:32:16;;;;;;;9.10;2.95;;;;;;;5.45;28.92;98204.50;4473652;32;20155;-85
2021/12/26 11:34:45;;;;;;;8.60;2.30;;;;;;;5.63;29.37;98215.91;4473118;32;20084;-84
2021/12/26 11:37:11;;;;;;;9.60;2.55;;;;;;;5.57;28.68;98203.13;4486712;32;20103;-84
2021/12/26 11:39:38;;;;;;;9.15;2.40;;;;;;;5.56;28.89;98209.25;4473231;32;20448;-84
2021/12/26 11:42:17;;;;;;;8.50;2.15;;;;;;;5.62;28.91;98204.63;4473079;32;20084;-85